Latest Weather Observations for Mount William

IDV60801

Issued at 6:32 pm EST Wednesday 28 June 2017 (issued every 30 minutes, with the page automatically refreshed every 10 minutes)

About weather observations | Map of weather stations | Latest weather observations for VIC | Other Formats
Station Details ID: 079103 Name: MOUNT WILLIAM Lat: -37.30 Lon: 142.60 Height: 1150.0 m
Data from the previous 72 hours. | See also: Recent months at Mount William
Date/Time
EST
Temp
°C
App
Temp
°C
Dew
Point
°C
Rel
Hum
%
Delta-T
°C
Wind Press
QNH
hPa
Press
MSL
hPa
Rain since
9am
mm
Dir  Spd
km/h
Gust
km/h
Spd
kts
Gust
kts
28/06:30pm 3.8 -0.8 3.7 99 0.0 WNW 17 26 9 14 - - 0.0
28/06:00pm 4.1 0.3 4.0 99 0.0 NW 13 19 7 10 - - 0.0
28/05:30pm 3.8 0.3 3.7 99 0.0 NW 11 15 6 8 - - 0.0
28/05:00pm 4.1 0.7 4.0 99 0.0 WNW 11 20 6 11 - - 0.0
28/04:30pm 4.3 1.3 4.2 99 0.0 NW 9 15 5 8 - - 0.0
28/04:00pm 4.5 1.2 4.4 99 0.0 W 11 19 6 10 - - 0.0
28/03:30pm 4.5 1.2 4.4 99 0.0 WNW 11 19 6 10 - - 0.0
28/03:00pm 4.3 0.2 4.2 99 0.0 WNW 15 22 8 12 - - 0.0
28/02:30pm 4.1 -0.8 4.0 99 0.0 W 19 30 10 16 - - 0.0
28/02:00pm 4.2 -0.7 4.1 99 0.0 WNW 19 28 10 15 - - 0.0
28/01:30pm 4.3 -0.6 4.2 99 0.0 WNW 19 26 10 14 - - 0.0
28/01:00pm 4.8 0.0 4.7 99 0.0 WNW 19 26 10 14 - - 0.0
28/12:30pm 4.8 0.0 4.7 99 0.0 WNW 19 26 10 14 - - 0.0
28/12:00pm 4.6 -0.4 4.5 99 0.0 W 20 32 11 17 - - 0.0
28/11:30am 4.8 -0.6 4.7 99 0.0 W 22 35 12 19 - - 0.0
28/11:00am 4.0 -1.9 3.9 99 0.0 W 24 33 13 18 - - 0.0
28/10:30am 4.3 -1.2 4.2 99 0.0 W 22 30 12 16 - - 0.0
28/10:00am 4.1 -1.0 4.0 99 0.0 W 20 32 11 17 - - 0.0
28/09:30am 4.0 -1.1 3.9 99 0.0 W 20 28 11 15 - - 0.0
28/09:00am 3.7 -2.6 3.6 99 0.0 W 26 33 14 18 - - 0.8
28/08:30am 3.7 -2.6 3.6 99 0.0 W 26 33 14 18 - - 0.6
28/08:00am 3.5 -2.9 3.4 99 0.0 W 26 32 14 17 - - 0.6
28/07:30am 3.5 -3.2 3.4 99 0.0 W 28 39 15 21 - - 0.6
28/07:00am 3.1 -4.1 3.0 99 0.0 WNW 30 37 16 20 - - 0.6
28/06:30am 3.2 -4.4 3.1 99 0.0 W 32 39 17 21 - - 0.6
28/06:00am 2.9 -4.3 2.8 99 0.0 WNW 30 39 16 21 - - 0.4
28/05:30am 3.0 -3.8 2.9 99 0.0 W 28 37 15 20 - - 0.4
28/05:00am 3.1 -4.1 3.0 99 0.0 WNW 30 43 16 23 - - 0.4
28/04:30am 3.1 -4.1 3.0 99 0.0 W 30 39 16 21 - - 0.4
28/04:00am 3.1 -4.5 3.0 99 0.0 WNW 32 41 17 22 - - 0.2
28/03:30am 3.0 -4.6 2.9 99 0.0 W 32 39 17 21 - - 0.2
28/03:00am 3.1 -4.5 3.0 99 0.0 WNW 32 41 17 22 - - 0.2
28/02:30am 3.1 -4.1 3.0 99 0.0 WNW 30 39 16 21 - - 0.2
28/02:00am 3.1 -4.1 3.0 99 0.0 WNW 30 39 16 21 - - 0.0
28/01:30am 3.0 -3.5 2.9 99 0.0 WNW 26 35 14 19 - - 0.0
28/01:00am 2.4 -4.2 2.3 99 0.0 NW 26 33 14 18 - - 0.0
28/12:30am 2.4 -3.8 2.3 99 0.0 NNW 24 39 13 21 - - 0.0
28/12:00am 2.5 -3.3 2.4 99 0.0 NW 22 33 12 18 - - 0.0
 
Date/Time
EST
Temp
°C
App
Temp
°C
Dew
Point
°C
Rel
Hum
%
Delta-T
°C
Wind Press
QNH
hPa
Press
MSL
hPa
Rain since
9am
mm
Dir  Spd
km/h
Gust
km/h
Spd
kts
Gust
kts
27/11:30pm 2.5 -3.3 2.4 99 0.0 NNW 22 32 12 17 - - 0.0
27/11:00pm 2.6 -3.5 2.5 99 0.0 NW 24 33 13 18 - - 0.0
27/10:30pm 2.9 -3.2 2.8 99 0.0 NW 24 32 13 17 - - 0.0
27/10:00pm 3.0 -3.1 2.9 99 0.0 NW 24 30 13 16 - - 0.0
27/09:30pm 3.0 -2.7 2.9 99 0.0 NW 22 30 12 16 - - 0.0
27/09:00pm 3.0 -2.7 2.9 99 0.0 NW 22 30 12 16 - - 0.0
27/08:30pm 3.0 -2.7 2.9 99 0.0 NW 22 28 12 15 - - 0.0
27/08:00pm 3.1 -2.2 3.0 99 0.0 NW 20 24 11 13 - - 0.0
27/07:30pm 3.0 -2.7 2.9 99 0.0 NW 22 26 12 14 - - 0.0
27/07:00pm 3.1 -2.6 3.0 99 0.0 NW 22 30 12 16 - - 0.0
27/06:30pm 2.9 -2.8 2.8 99 0.0 NW 22 30 12 16 - - 0.0
27/06:00pm 2.6 -2.8 2.5 99 0.0 NW 20 26 11 14 - - 0.0
27/05:30pm 2.4 -2.5 2.3 99 0.0 NW 17 26 9 14 - - 0.0
27/05:00pm 2.5 -4.4 2.4 99 0.0 W 28 33 15 18 - - 0.0
27/04:30pm 3.0 -1.4 2.9 99 0.0 WNW 15 22 8 12 - - 0.0
27/04:00pm 3.3 -0.6 3.2 99 0.0 WNW 13 22 7 12 - - 0.0
27/03:30pm 3.3 -1.4 3.2 99 0.0 NW 17 24 9 13 - - 0.0
27/03:00pm 3.0 -1.7 2.9 99 0.0 NW 17 28 9 15 - - 0.0
27/02:30pm 3.2 -1.1 3.1 99 0.0 NW 15 24 8 13 - - 0.0
27/02:00pm 3.3 -1.1 2.9 97 0.2 NW 15 20 8 11 - - 0.0
27/01:30pm 3.3 -1.5 2.7 96 0.3 NW 17 26 9 14 - - 0.0
27/01:00pm 2.9 -1.9 2.8 99 0.0 NW 17 22 9 12 - - 0.0
27/12:30pm 2.2 -2.7 2.1 99 0.0 NW 17 26 9 14 - - 0.0
27/12:00pm 2.7 -1.9 1.8 94 0.4 NNW 15 20 8 11 - - 0.0
27/11:30am 3.2 -0.9 2.2 93 0.4 NW 13 24 7 13 - - 0.0
27/11:00am 3.3 -0.7 2.6 95 0.3 NW 13 17 7 9 - - 0.0
27/10:30am 2.3 -2.7 1.4 94 0.4 WNW 17 24 9 13 - - 0.0
27/10:00am 1.8 -3.2 1.1 95 0.3 WNW 17 20 9 11 - - 0.0
27/09:30am 1.5 -4.0 0.9 96 0.2 WNW 19 24 10 13 - - 0.0
27/09:00am 1.4 -3.3 1.0 97 0.2 NW 15 24 8 13 - - 2.0
27/08:30am 1.3 -3.8 0.7 96 0.2 NW 17 24 9 13 - - 2.0
27/08:00am 1.2 -3.5 0.8 97 0.2 NNW 15 22 8 12 - - 2.0
27/07:30am 1.1 -3.2 0.8 98 0.1 N 13 22 7 12 - - 2.0
27/07:00am 1.2 -3.1 0.9 98 0.1 NNW 13 19 7 10 - - 2.0
27/06:30am 1.3 -3.0 0.9 97 0.2 N 13 22 7 12 - - 2.0
27/06:00am 1.3 -3.4 0.9 97 0.2 NNW 15 20 8 11 - - 2.0
27/05:30am 1.1 -2.8 1.0 99 0.0 N 11 19 6 10 - - 2.0
27/05:00am 1.2 -2.3 1.1 99 0.0 NNW 9 13 5 7 - - 2.0
27/04:30am 1.2 -2.7 1.1 99 0.0 NNW 11 15 6 8 - - 2.0
27/04:00am 1.1 -2.4 1.0 99 0.0 N 9 15 5 8 - - 2.0
27/03:30am 1.3 -2.6 1.2 99 0.0 NNW 11 17 6 9 - - 2.0
27/03:00am 1.3 -3.4 1.2 99 0.0 NNW 15 20 8 11 - - 2.0
27/02:30am 1.3 -3.0 1.2 99 0.0 NNW 13 22 7 12 - - 2.0
27/02:00am 1.4 -2.9 1.3 99 0.0 NNW 13 22 7 12 - - 2.0
27/01:30am 1.5 -2.4 1.4 99 0.0 NW 11 17 6 9 - - 2.0
27/01:00am 1.5 -2.0 1.4 99 0.0 NW 9 15 5 8 - - 2.0
27/12:30am 1.5 -3.1 1.4 99 0.0 N 15 24 8 13 - - 2.0
27/12:00am 1.5 -2.0 1.4 99 0.0 N 9 17 5 9 - - 2.0
 
Date/Time
EST
Temp
°C
App
Temp
°C
Dew
Point
°C
Rel
Hum
%
Delta-T
°C
Wind Press
QNH
hPa
Press
MSL
hPa
Rain since
9am
mm
Dir  Spd
km/h
Gust
km/h
Spd
kts
Gust
kts
26/11:30pm 1.6 -1.3 1.5 99 0.0 N 6 9 3 5 - - 2.0
26/11:00pm 1.6 -1.5 1.5 99 0.0 NNE 7 9 4 5 - - 2.0
26/10:30pm 1.9 -0.6 1.8 99 0.0 NNE 4 7 2 4 - - 2.0
26/10:00pm 1.7 -2.1 1.6 99 0.0 NE 11 15 6 8 - - 2.0
26/09:30pm 2.1 -0.7 2.0 99 0.0 NNE 6 9 3 5 - - 2.0
26/09:00pm 2.0 -0.4 1.9 99 0.0 N 4 7 2 4 - - 1.8
26/08:30pm 1.9 0.2 1.8 99 0.0 CALM 0 0 0 0 - - 1.8
26/08:00pm 1.7 -0.4 1.6 99 0.0 NE 2 6 1 3 - - 1.8
26/07:30pm 1.8 -1.1 1.7 99 0.0 ENE 6 6 3 3 - - 1.8
26/07:00pm 2.0 0.3 1.9 99 0.0 CALM 0 0 0 0 - - 1.8
26/06:30pm 1.9 -0.6 1.8 99 0.0 SE 4 6 2 3 - - 1.8
26/06:00pm 1.9 -0.2 1.8 99 0.0 SW 2 6 1 3 - - 1.8
26/05:30pm 2.0 -0.1 1.9 99 0.0 SW 2 4 1 2 - - 1.8
26/05:00pm 2.3 0.3 2.2 99 0.0 SW 2 4 1 2 - - 1.8
26/04:30pm 2.4 -0.6 2.3 99 0.0 SW 7 9 4 5 - - 1.8
26/04:00pm 2.8 0.9 2.7 99 0.0 NNE 2 4 1 2 - - 1.6
26/03:30pm 3.1 1.6 3.0 99 0.0 CALM 0 6 0 3 - - 0.6
26/03:00pm 2.5 0.1 2.4 99 0.0 S 4 7 2 4 - - 0.4
26/02:30pm 2.7 0.8 2.6 99 0.0 SW 2 4 1 2 - - 0.4
26/02:00pm 2.9 0.6 2.8 99 0.0 WSW 4 7 2 4 - - 0.4
26/01:30pm 2.8 0.9 2.7 99 0.0 WSW 2 7 1 4 - - 0.2
26/01:00pm 3.0 0.7 2.9 99 0.0 NNW 4 6 2 3 - - 0.0
26/12:30pm 2.7 0.8 2.6 99 0.0 SE 2 6 1 3 - - 0.0
26/12:00pm 2.4 0.4 2.3 99 0.0 SSW 2 7 1 4 - - 0.0
26/11:30am 2.4 0.0 2.3 99 0.0 S 4 7 2 4 - - 0.0
26/11:00am 2.4 0.0 2.3 99 0.0 SSW 4 11 2 6 - - 0.0
26/10:30am 2.5 0.5 2.4 99 0.0 WSW 2 9 1 5 - - 0.0
26/10:00am 2.5 0.1 2.4 99 0.0 SW 4 6 2 3 - - 0.0
26/09:30am 1.9 -1.1 1.8 99 0.0 SSW 7 13 4 7 - - 0.0
26/09:00am 1.6 -1.5 1.5 99 0.0 SW 7 11 4 6 - - 3.6
26/08:30am 1.5 -3.9 1.4 99 0.0 SW 19 28 10 15 - - 3.6
26/08:00am 1.8 -3.5 1.7 99 0.0 SW 19 24 10 13 - - 3.4
26/07:30am 1.5 -4.4 1.4 99 0.0 SW 22 30 12 16 - - 3.4
26/07:00am 1.3 -4.3 1.2 99 0.0 SW 20 28 11 15 - - 3.4
26/06:30am 1.5 -2.4 1.4 99 0.0 WSW 11 22 6 12 - - 3.4
26/06:00am 1.6 -3.4 1.5 99 0.0 SW 17 30 9 16 - - 3.4
26/05:30am 1.7 -2.5 1.6 99 0.0 WSW 13 24 7 13 - - 3.4
26/05:00am 1.8 -2.8 1.7 99 0.0 WSW 15 26 8 14 - - 3.4
26/04:30am 1.8 -3.7 1.7 99 0.0 WSW 20 28 11 15 - - 3.4
26/04:00am 1.9 -3.0 1.8 99 0.0 WSW 17 30 9 16 - - 3.2
26/03:30am 2.1 -2.4 2.0 99 0.0 WSW 15 35 8 19 - - 3.2
26/03:00am 2.0 -2.2 1.9 99 0.0 W 13 22 7 12 - - 3.2
26/02:30am 2.0 -2.5 1.9 99 0.0 W 15 26 8 14 - - 3.2
26/02:00am 2.3 -2.2 2.2 99 0.0 W 15 26 8 14 - - 3.2
26/01:30am 2.3 -1.8 2.2 99 0.0 WSW 13 24 7 13 - - 3.2
26/01:00am 2.5 -1.2 2.4 99 0.0 W 11 26 6 14 - - 3.2
26/12:30am 2.6 -0.7 2.5 99 0.0 W 9 17 5 9 - - 3.0
26/12:00am 3.0 -1.0 2.9 99 0.0 WSW 13 30 7 16 - - 3.0
 
Date/Time
EST
Temp
°C
App
Temp
°C
Dew
Point
°C
Rel
Hum
%
Delta-T
°C
Wind Press
QNH
hPa
Press
MSL
hPa
Rain since
9am
mm
Dir  Spd
km/h
Gust
km/h
Spd
kts
Gust
kts
25/11:30pm 3.0 -1.0 2.9 99 0.0 W 13 28 7 15 - - 3.0
25/11:00pm 3.1 -0.9 3.0 99 0.0 WSW 13 28 7 15 - - 3.0
25/10:30pm 3.3 -0.6 3.2 99 0.0 W 13 28 7 15 - - 3.0
25/10:00pm 3.3 -1.4 3.2 99 0.0 WSW 17 28 9 15 - - 2.8
25/09:30pm 3.4 -0.9 3.3 99 0.0 W 15 30 8 16 - - 2.8
25/09:00pm 3.5 -1.2 3.4 99 0.0 WSW 17 30 9 16 - - 2.8
25/08:30pm 3.5 -1.5 3.4 99 0.0 W 19 33 10 18 - - 2.6
25/08:00pm 3.4 -0.9 3.3 99 0.0 W 15 37 8 20 - - 2.6
25/07:30pm 3.5 -0.8 3.4 99 0.0 WSW 15 30 8 16 - - 2.4
25/07:00pm 3.5 -1.2 3.4 99 0.0 WSW 17 35 9 19 - - 2.0

Other Formats:

Comma delimited format used in spreadsheet applications
http://www.bom.gov.au/fwo/IDV60801/IDV60801.94833.axf

JavaScript Object Notation format (JSON) in row-major order
http://www.bom.gov.au/fwo/IDV60801/IDV60801.94833.json